sensor_id;sensor_type;location;lat;lon;timestamp;P1;durP1;ratioP1;P2;durP2;ratioP2
57551;SDS011;43379;48.160;14.036;2023-03-01T00:01:20;18.47;;;16.57;;
57551;SDS011;43379;48.160;14.036;2023-03-01T00:03:48;22.37;;;17.20;;
57551;SDS011;43379;48.160;14.036;2023-03-01T00:06:14;18.40;;;16.50;;
57551;SDS011;43379;48.160;14.036;2023-03-01T00:08:40;18.93;;;16.37;;
57551;SDS011;43379;48.160;14.036;2023-03-01T00:11:14;19.53;;;17.40;;
57551;SDS011;43379;48.160;14.036;2023-03-01T00:13:42;20.57;;;18.40;;
57551;SDS011;43379;48.160;14.036;2023-03-01T00:16:10;21.50;;;18.97;;
57551;SDS011;43379;48.160;14.036;2023-03-01T00:18:45;20.03;;;17.87;;
57551;SDS011;43379;48.160;14.036;2023-03-01T00:21:10;21.97;;;18.93;;
57551;SDS011;43379;48.160;14.036;2023-03-01T00:23:37;19.50;;;17.40;;
57551;SDS011;43379;48.160;14.036;2023-03-01T00:26:07;20.70;;;18.00;;
57551;SDS011;43379;48.160;14.036;2023-03-01T00:28:34;20.20;;;17.90;;
57551;SDS011;43379;48.160;14.036;2023-03-01T00:31:04;20.07;;;17.47;;
57551;SDS011;43379;48.160;14.036;2023-03-01T00:33:34;21.87;;;18.47;;
57551;SDS011;43379;48.160;14.036;2023-03-01T00:36:00;19.10;;;17.10;;
57551;SDS011;43379;48.160;14.036;2023-03-01T00:38:26;23.07;;;18.07;;
57551;SDS011;43379;48.160;14.036;2023-03-01T00:40:52;20.30;;;17.10;;
57551;SDS011;43379;48.160;14.036;2023-03-01T00:43:18;19.87;;;17.60;;
57551;SDS011;43379;48.160;14.036;2023-03-01T00:45:44;21.50;;;17.67;;
57551;SDS011;43379;48.160;14.036;2023-03-01T00:48:10;19.43;;;16.73;;
57551;SDS011;43379;48.160;14.036;2023-03-01T00:50:36;21.13;;;17.97;;
57551;SDS011;43379;48.160;14.036;2023-03-01T00:53:01;19.73;;;17.40;;
57551;SDS011;43379;48.160;14.036;2023-03-01T00:55:27;21.23;;;16.60;;
57551;SDS011;43379;48.160;14.036;2023-03-01T00:57:53;18.70;;;16.70;;
57551;SDS011;43379;48.160;14.036;2023-03-01T01:00:19;18.13;;;16.20;;
57551;SDS011;43379;48.160;14.036;2023-03-01T01:02:45;21.97;;;17.10;;
57551;SDS011;43379;48.160;14.036;2023-03-01T01:05:11;21.20;;;16.50;;
57551;SDS011;43379;48.160;14.036;2023-03-01T01:07:37;19.70;;;15.90;;
57551;SDS011;43379;48.160;14.036;2023-03-01T01:10:03;17.77;;;15.87;;
57551;SDS011;43379;48.160;14.036;2023-03-01T01:12:30;19.83;;;16.67;;
57551;SDS011;43379;48.160;14.036;2023-03-01T01:14:56;20.13;;;15.93;;
57551;SDS011;43379;48.160;14.036;2023-03-01T01:17:22;21.23;;;19.03;;
57551;SDS011;43379;48.160;14.036;2023-03-01T01:19:47;21.23;;;16.87;;
57551;SDS011;43379;48.160;14.036;2023-03-01T01:22:13;21.07;;;18.17;;
57551;SDS011;43379;48.160;14.036;2023-03-01T01:24:38;18.70;;;16.70;;
57551;SDS011;43379;48.160;14.036;2023-03-01T01:27:04;20.33;;;17.80;;
57551;SDS011;43379;48.160;14.036;2023-03-01T01:29:32;21.63;;;18.67;;
57551;SDS011;43379;48.160;14.036;2023-03-01T01:31:58;21.60;;;19.30;;
57551;SDS011;43379;48.160;14.036;2023-03-01T01:34:24;20.47;;;17.50;;
57551;SDS011;43379;48.160;14.036;2023-03-01T01:36:53;21.87;;;19.50;;
57551;SDS011;43379;48.160;14.036;2023-03-01T01:39:19;21.63;;;18.20;;
57551;SDS011;43379;48.160;14.036;2023-03-01T01:41:46;22.97;;;20.23;;
57551;SDS011;43379;48.160;14.036;2023-03-01T01:44:12;26.10;;;20.60;;
57551;SDS011;43379;48.160;14.036;2023-03-01T01:46:51;26.20;;;20.07;;
57551;SDS011;43379;48.160;14.036;2023-03-01T01:51:54;22.13;;;17.60;;
57551;SDS011;43379;48.160;14.036;2023-03-01T01:54:37;21.17;;;17.80;;
57551;SDS011;43379;48.160;14.036;2023-03-01T01:57:14;22.23;;;17.70;;
57551;SDS011;43379;48.160;14.036;2023-03-01T01:59:45;19.47;;;16.57;;
57551;SDS011;43379;48.160;14.036;2023-03-01T02:02:14;22.63;;;18.47;;
57551;SDS011;43379;48.160;14.036;2023-03-01T02:04:40;23.67;;;19.70;;
57551;SDS011;43379;48.160;14.036;2023-03-01T02:07:09;19.83;;;17.30;;
57551;SDS011;43379;48.160;14.036;2023-03-01T02:09:43;22.93;;;18.33;;
57551;SDS011;43379;48.160;14.036;2023-03-01T02:12:12;22.73;;;18.63;;
57551;SDS011;43379;48.160;14.036;2023-03-01T02:14:43;23.60;;;19.40;;
57551;SDS011;43379;48.160;14.036;2023-03-01T02:17:10;22.57;;;19.20;;
57551;SDS011;43379;48.160;14.036;2023-03-01T02:19:49;21.67;;;18.73;;
57551;SDS011;43379;48.160;14.036;2023-03-01T02:24:56;20.90;;;17.40;;
57551;SDS011;43379;48.160;14.036;2023-03-01T02:27:33;20.47;;;18.27;;
57551;SDS011;43379;48.160;14.036;2023-03-01T02:30:08;22.17;;;18.03;;
57551;SDS011;43379;48.160;14.036;2023-03-01T02:32:37;23.63;;;18.80;;
57551;SDS011;43379;48.160;14.036;2023-03-01T02:35:08;24.40;;;17.27;;
57551;SDS011;43379;48.160;14.036;2023-03-01T02:37:36;20.90;;;18.00;;
57551;SDS011;43379;48.160;14.036;2023-03-01T02:40:04;23.27;;;18.43;;
57551;SDS011;43379;48.160;14.036;2023-03-01T02:42:37;20.97;;;18.23;;
57551;SDS011;43379;48.160;14.036;2023-03-01T02:45:12;24.57;;;19.83;;
57551;SDS011;43379;48.160;14.036;2023-03-01T02:47:38;22.00;;;18.57;;
57551;SDS011;43379;48.160;14.036;2023-03-01T02:50:09;23.40;;;19.07;;
57551;SDS011;43379;48.160;14.036;2023-03-01T02:55:42;24.47;;;20.27;;
57551;SDS011;43379;48.160;14.036;2023-03-01T02:58:08;22.57;;;18.90;;
57551;SDS011;43379;48.160;14.036;2023-03-01T03:00:35;21.27;;;18.97;;
57551;SDS011;43379;48.160;14.036;2023-03-01T03:03:21;29.93;;;19.83;;
57551;SDS011;43379;48.160;14.036;2023-03-01T03:05:47;22.47;;;20.10;;
57551;SDS011;43379;48.160;14.036;2023-03-01T03:08:13;21.77;;;19.03;;
57551;SDS011;43379;48.160;14.036;2023-03-01T03:10:41;23.30;;;19.73;;
57551;SDS011;43379;48.160;14.036;2023-03-01T03:13:11;23.70;;;19.87;;
57551;SDS011;43379;48.160;14.036;2023-03-01T03:15:39;21.60;;;19.30;;
57551;SDS011;43379;48.160;14.036;2023-03-01T03:18:07;22.57;;;18.83;;
57551;SDS011;43379;48.160;14.036;2023-03-01T03:20:35;24.53;;;19.77;;
57551;SDS011;43379;48.160;14.036;2023-03-01T03:23:01;26.37;;;18.90;;
57551;SDS011;43379;48.160;14.036;2023-03-01T03:25:28;23.13;;;19.67;;
57551;SDS011;43379;48.160;14.036;2023-03-01T03:27:55;23.40;;;19.70;;
57551;SDS011;43379;48.160;14.036;2023-03-01T03:30:23;22.13;;;19.37;;
57551;SDS011;43379;48.160;14.036;2023-03-01T03:32:50;25.03;;;19.67;;
57551;SDS011;43379;48.160;14.036;2023-03-01T03:35:23;25.67;;;19.77;;
57551;SDS011;43379;48.160;14.036;2023-03-01T03:37:51;25.20;;;19.87;;
57551;SDS011;43379;48.160;14.036;2023-03-01T03:40:26;21.90;;;19.20;;
57551;SDS011;43379;48.160;14.036;2023-03-01T03:42:54;24.77;;;20.00;;
57551;SDS011;43379;48.160;14.036;2023-03-01T03:45:20;24.57;;;20.53;;
57551;SDS011;43379;48.160;14.036;2023-03-01T03:47:46;25.37;;;21.43;;
57551;SDS011;43379;48.160;14.036;2023-03-01T03:50:12;24.97;;;21.20;;
57551;SDS011;43379;48.160;14.036;2023-03-01T03:52:39;23.90;;;21.40;;
57551;SDS011;43379;48.160;14.036;2023-03-01T03:55:06;29.63;;;23.30;;
57551;SDS011;43379;48.160;14.036;2023-03-01T03:57:39;25.57;;;20.57;;
57551;SDS011;43379;48.160;14.036;2023-03-01T04:00:07;28.40;;;21.73;;
57551;SDS011;43379;48.160;14.036;2023-03-01T04:02:42;25.73;;;21.80;;
57551;SDS011;43379;48.160;14.036;2023-03-01T04:05:09;26.87;;;20.77;;
57551;SDS011;43379;48.160;14.036;2023-03-01T04:07:36;31.57;;;23.83;;
57551;SDS011;43379;48.160;14.036;2023-03-01T04:10:04;27.37;;;21.60;;
57551;SDS011;43379;48.160;14.036;2023-03-01T04:12:32;31.63;;;23.23;;
57551;SDS011;43379;48.160;14.036;2023-03-01T04:14:59;26.77;;;21.10;;
57551;SDS011;43379;48.160;14.036;2023-03-01T04:17:25;24.80;;;21.63;;
57551;SDS011;43379;48.160;14.036;2023-03-01T04:19:51;30.03;;;24.13;;
57551;SDS011;43379;48.160;14.036;2023-03-01T04:22:17;28.47;;;21.73;;
57551;SDS011;43379;48.160;14.036;2023-03-01T04:24:43;32.83;;;24.00;;
57551;SDS011;43379;48.160;14.036;2023-03-01T04:27:09;29.77;;;24.30;;
57551;SDS011;43379;48.160;14.036;2023-03-01T04:29:36;28.10;;;21.80;;
57551;SDS011;43379;48.160;14.036;2023-03-01T04:32:02;32.10;;;23.20;;
57551;SDS011;43379;48.160;14.036;2023-03-01T04:34:28;30.47;;;22.23;;
57551;SDS011;43379;48.160;14.036;2023-03-01T04:36:54;28.97;;;23.13;;
57551;SDS011;43379;48.160;14.036;2023-03-01T04:39:20;27.47;;;21.73;;
57551;SDS011;43379;48.160;14.036;2023-03-01T04:41:46;29.87;;;23.80;;
57551;SDS011;43379;48.160;14.036;2023-03-01T04:44:12;37.83;;;25.23;;
57551;SDS011;43379;48.160;14.036;2023-03-01T04:46:38;30.13;;;24.17;;
57551;SDS011;43379;48.160;14.036;2023-03-01T04:49:03;31.43;;;24.30;;
57551;SDS011;43379;48.160;14.036;2023-03-01T04:51:30;30.53;;;23.70;;
57551;SDS011;43379;48.160;14.036;2023-03-01T04:53:57;28.60;;;23.37;;
57551;SDS011;43379;48.160;14.036;2023-03-01T04:56:23;29.47;;;24.97;;
57551;SDS011;43379;48.160;14.036;2023-03-01T04:58:49;40.00;;;25.53;;
57551;SDS011;43379;48.160;14.036;2023-03-01T05:01:16;29.80;;;24.10;;
57551;SDS011;43379;48.160;14.036;2023-03-01T05:03:45;37.87;;;24.93;;
57551;SDS011;43379;48.160;14.036;2023-03-01T05:06:15;34.90;;;24.70;;
57551;SDS011;43379;48.160;14.036;2023-03-01T05:08:42;31.63;;;23.40;;
57551;SDS011;43379;48.160;14.036;2023-03-01T05:11:08;31.10;;;24.20;;
57551;SDS011;43379;48.160;14.036;2023-03-01T05:13:35;29.03;;;23.27;;
57551;SDS011;43379;48.160;14.036;2023-03-01T05:16:06;33.53;;;27.03;;
57551;SDS011;43379;48.160;14.036;2023-03-01T05:18:36;32.20;;;26.63;;
57551;SDS011;43379;48.160;14.036;2023-03-01T05:21:04;31.73;;;24.83;;
57551;SDS011;43379;48.160;14.036;2023-03-01T05:23:32;30.60;;;24.03;;
57551;SDS011;43379;48.160;14.036;2023-03-01T05:25:59;34.83;;;25.50;;
57551;SDS011;43379;48.160;14.036;2023-03-01T05:28:25;34.23;;;25.60;;
57551;SDS011;43379;48.160;14.036;2023-03-01T05:30:52;33.03;;;25.30;;
57551;SDS011;43379;48.160;14.036;2023-03-01T05:33:19;30.20;;;24.77;;
57551;SDS011;43379;48.160;14.036;2023-03-01T05:35:46;34.23;;;26.20;;
57551;SDS011;43379;48.160;14.036;2023-03-01T05:38:13;37.97;;;27.10;;
57551;SDS011;43379;48.160;14.036;2023-03-01T05:40:41;33.63;;;25.77;;
57551;SDS011;43379;48.160;14.036;2023-03-01T05:43:08;32.37;;;26.97;;
57551;SDS011;43379;48.160;14.036;2023-03-01T05:45:35;36.30;;;27.47;;
57551;SDS011;43379;48.160;14.036;2023-03-01T05:48:02;31.87;;;24.53;;
57551;SDS011;43379;48.160;14.036;2023-03-01T05:50:28;33.57;;;27.50;;
57551;SDS011;43379;48.160;14.036;2023-03-01T05:52:58;40.53;;;27.07;;
57551;SDS011;43379;48.160;14.036;2023-03-01T05:55:24;33.63;;;26.83;;
57551;SDS011;43379;48.160;14.036;2023-03-01T05:57:49;39.70;;;25.57;;
57551;SDS011;43379;48.160;14.036;2023-03-01T06:00:16;37.40;;;26.17;;
57551;SDS011;43379;48.160;14.036;2023-03-01T06:02:44;35.37;;;27.50;;
57551;SDS011;43379;48.160;14.036;2023-03-01T06:05:10;34.10;;;25.40;;
57551;SDS011;43379;48.160;14.036;2023-03-01T06:07:38;36.67;;;25.93;;
57551;SDS011;43379;48.160;14.036;2023-03-01T06:10:04;35.40;;;26.57;;
57551;SDS011;43379;48.160;14.036;2023-03-01T06:12:32;41.27;;;27.37;;
57551;SDS011;43379;48.160;14.036;2023-03-01T06:14:59;38.60;;;28.50;;
57551;SDS011;43379;48.160;14.036;2023-03-01T06:17:24;36.60;;;29.03;;
57551;SDS011;43379;48.160;14.036;2023-03-01T06:19:50;39.80;;;28.90;;
57551;SDS011;43379;48.160;14.036;2023-03-01T06:22:16;37.10;;;27.63;;
57551;SDS011;43379;48.160;14.036;2023-03-01T06:24:42;35.20;;;27.50;;
57551;SDS011;43379;48.160;14.036;2023-03-01T06:27:07;36.20;;;27.20;;
57551;SDS011;43379;48.160;14.036;2023-03-01T06:29:33;31.23;;;26.93;;
57551;SDS011;43379;48.160;14.036;2023-03-01T06:31:59;39.87;;;27.13;;
57551;SDS011;43379;48.160;14.036;2023-03-01T06:34:24;35.03;;;26.20;;
57551;SDS011;43379;48.160;14.036;2023-03-01T06:36:50;34.03;;;27.30;;
57551;SDS011;43379;48.160;14.036;2023-03-01T06:39:15;33.90;;;28.00;;
57551;SDS011;43379;48.160;14.036;2023-03-01T06:41:42;35.70;;;29.00;;
57551;SDS011;43379;48.160;14.036;2023-03-01T06:44:08;34.63;;;27.50;;
57551;SDS011;43379;48.160;14.036;2023-03-01T06:46:34;33.20;;;26.90;;
57551;SDS011;43379;48.160;14.036;2023-03-01T06:48:59;37.43;;;25.90;;
57551;SDS011;43379;48.160;14.036;2023-03-01T06:51:25;34.70;;;27.60;;
57551;SDS011;43379;48.160;14.036;2023-03-01T06:53:51;35.97;;;26.70;;
57551;SDS011;43379;48.160;14.036;2023-03-01T06:56:16;34.87;;;26.93;;
57551;SDS011;43379;48.160;14.036;2023-03-01T06:58:42;37.23;;;26.50;;
57551;SDS011;43379;48.160;14.036;2023-03-01T07:01:08;35.87;;;27.00;;
57551;SDS011;43379;48.160;14.036;2023-03-01T07:03:34;38.00;;;28.73;;
57551;SDS011;43379;48.160;14.036;2023-03-01T07:06:00;36.00;;;27.50;;
57551;SDS011;43379;48.160;14.036;2023-03-01T07:08:26;36.97;;;29.23;;
57551;SDS011;43379;48.160;14.036;2023-03-01T07:10:58;32.23;;;26.90;;
57551;SDS011;43379;48.160;14.036;2023-03-01T07:13:24;34.90;;;29.47;;
57551;SDS011;43379;48.160;14.036;2023-03-01T07:15:50;33.23;;;27.60;;
57551;SDS011;43379;48.160;14.036;2023-03-01T07:18:15;29.60;;;26.13;;
57551;SDS011;43379;48.160;14.036;2023-03-01T07:20:41;31.57;;;28.20;;
57551;SDS011;43379;48.160;14.036;2023-03-01T07:23:07;31.93;;;28.60;;
57551;SDS011;43379;48.160;14.036;2023-03-01T07:25:32;32.17;;;28.87;;
57551;SDS011;43379;48.160;14.036;2023-03-01T07:27:58;30.03;;;27.03;;
57551;SDS011;43379;48.160;14.036;2023-03-01T07:30:24;36.07;;;32.17;;
57551;SDS011;43379;48.160;14.036;2023-03-01T07:32:54;34.60;;;29.23;;
57551;SDS011;43379;48.160;14.036;2023-03-01T07:35:20;32.40;;;29.30;;
57551;SDS011;43379;48.160;14.036;2023-03-01T07:37:46;36.30;;;32.60;;
57551;SDS011;43379;48.160;14.036;2023-03-01T07:40:12;33.73;;;30.43;;
57551;SDS011;43379;48.160;14.036;2023-03-01T07:42:38;33.80;;;30.53;;
57551;SDS011;43379;48.160;14.036;2023-03-01T07:45:04;35.13;;;31.47;;
57551;SDS011;43379;48.160;14.036;2023-03-01T07:47:31;34.53;;;30.97;;
57551;SDS011;43379;48.160;14.036;2023-03-01T07:49:57;33.60;;;30.17;;
57551;SDS011;43379;48.160;14.036;2023-03-01T07:52:23;33.13;;;29.83;;
57551;SDS011;43379;48.160;14.036;2023-03-01T07:54:49;33.10;;;30.00;;
57551;SDS011;43379;48.160;14.036;2023-03-01T07:57:14;32.47;;;29.37;;
57551;SDS011;43379;48.160;14.036;2023-03-01T07:59:40;33.40;;;30.10;;
57551;SDS011;43379;48.160;14.036;2023-03-01T08:02:06;32.90;;;30.00;;
57551;SDS011;43379;48.160;14.036;2023-03-01T08:04:33;35.17;;;31.73;;
57551;SDS011;43379;48.160;14.036;2023-03-01T08:06:58;34.73;;;31.40;;
57551;SDS011;43379;48.160;14.036;2023-03-01T08:09:24;35.87;;;32.47;;
57551;SDS011;43379;48.160;14.036;2023-03-01T08:11:50;34.90;;;31.83;;
57551;SDS011;43379;48.160;14.036;2023-03-01T08:14:15;35.13;;;31.87;;
57551;SDS011;43379;48.160;14.036;2023-03-01T08:16:41;33.30;;;30.20;;
57551;SDS011;43379;48.160;14.036;2023-03-01T08:19:08;33.57;;;30.57;;
57551;SDS011;43379;48.160;14.036;2023-03-01T08:21:35;33.67;;;30.47;;
57551;SDS011;43379;48.160;14.036;2023-03-01T08:24:01;33.93;;;30.83;;
57551;SDS011;43379;48.160;14.036;2023-03-01T08:26:28;33.37;;;30.37;;
57551;SDS011;43379;48.160;14.036;2023-03-01T08:28:53;33.20;;;30.10;;
57551;SDS011;43379;48.160;14.036;2023-03-01T08:31:21;35.60;;;32.10;;
57551;SDS011;43379;48.160;14.036;2023-03-01T08:33:49;32.93;;;29.90;;
57551;SDS011;43379;48.160;14.036;2023-03-01T08:36:20;33.20;;;30.20;;
57551;SDS011;43379;48.160;14.036;2023-03-01T08:38:46;32.57;;;29.73;;
57551;SDS011;43379;48.160;14.036;2023-03-01T08:41:12;33.27;;;30.17;;
57551;SDS011;43379;48.160;14.036;2023-03-01T08:43:38;33.23;;;30.37;;
57551;SDS011;43379;48.160;14.036;2023-03-01T08:46:03;31.60;;;28.67;;
57551;SDS011;43379;48.160;14.036;2023-03-01T08:48:29;30.43;;;27.73;;
57551;SDS011;43379;48.160;14.036;2023-03-01T08:50:55;31.37;;;28.27;;
57551;SDS011;43379;48.160;14.036;2023-03-01T08:53:21;32.40;;;29.60;;
57551;SDS011;43379;48.160;14.036;2023-03-01T08:55:46;32.03;;;29.10;;
57551;SDS011;43379;48.160;14.036;2023-03-01T08:58:12;31.23;;;28.50;;
57551;SDS011;43379;48.160;14.036;2023-03-01T09:00:38;33.50;;;30.33;;
57551;SDS011;43379;48.160;14.036;2023-03-01T09:03:05;30.30;;;27.50;;
57551;SDS011;43379;48.160;14.036;2023-03-01T09:05:31;33.00;;;30.13;;
57551;SDS011;43379;48.160;14.036;2023-03-01T09:07:57;30.87;;;28.17;;
57551;SDS011;43379;48.160;14.036;2023-03-01T09:10:23;29.23;;;26.73;;
57551;SDS011;43379;48.160;14.036;2023-03-01T09:12:49;30.90;;;28.20;;
57551;SDS011;43379;48.160;14.036;2023-03-01T09:15:15;30.30;;;27.60;;
57551;SDS011;43379;48.160;14.036;2023-03-01T09:17:41;31.30;;;28.70;;
57551;SDS011;43379;48.160;14.036;2023-03-01T09:20:07;30.43;;;27.60;;
57551;SDS011;43379;48.160;14.036;2023-03-01T09:22:33;27.53;;;25.03;;
57551;SDS011;43379;48.160;14.036;2023-03-01T09:25:00;31.07;;;28.30;;
57551;SDS011;43379;48.160;14.036;2023-03-01T09:27:25;28.63;;;26.10;;
57551;SDS011;43379;48.160;14.036;2023-03-01T09:29:51;26.30;;;24.30;;
57551;SDS011;43379;48.160;14.036;2023-03-01T09:32:17;28.90;;;26.20;;
57551;SDS011;43379;48.160;14.036;2023-03-01T09:34:42;27.20;;;24.63;;
57551;SDS011;43379;48.160;14.036;2023-03-01T09:37:28;28.67;;;26.00;;
57551;SDS011;43379;48.160;14.036;2023-03-01T09:39:55;27.50;;;25.03;;
57551;SDS011;43379;48.160;14.036;2023-03-01T09:42:20;25.40;;;23.10;;
57551;SDS011;43379;48.160;14.036;2023-03-01T09:45:00;26.97;;;24.17;;
57551;SDS011;43379;48.160;14.036;2023-03-01T09:47:30;26.90;;;24.17;;
57551;SDS011;43379;48.160;14.036;2023-03-01T09:50:00;25.60;;;23.30;;
57551;SDS011;43379;48.160;14.036;2023-03-01T09:52:38;24.03;;;21.83;;
57551;SDS011;43379;48.160;14.036;2023-03-01T09:55:15;24.03;;;21.63;;
57551;SDS011;43379;48.160;14.036;2023-03-01T10:00:37;23.87;;;21.60;;
57551;SDS011;43379;48.160;14.036;2023-03-01T10:03:43;24.00;;;21.73;;
57551;SDS011;43379;48.160;14.036;2023-03-01T10:06:21;25.63;;;23.13;;
57551;SDS011;43379;48.160;14.036;2023-03-01T10:11:48;21.07;;;19.10;;
57551;SDS011;43379;48.160;14.036;2023-03-01T10:14:31;22.97;;;20.73;;
57551;SDS011;43379;48.160;14.036;2023-03-01T10:17:02;23.43;;;21.03;;
57551;SDS011;43379;48.160;14.036;2023-03-01T10:19:42;22.80;;;20.60;;
57551;SDS011;43379;48.160;14.036;2023-03-01T10:24:43;23.30;;;20.60;;
57551;SDS011;43379;48.160;14.036;2023-03-01T10:27:17;24.80;;;22.33;;
57551;SDS011;43379;48.160;14.036;2023-03-01T10:29:59;22.10;;;19.70;;
57551;SDS011;43379;48.160;14.036;2023-03-01T10:32:34;21.67;;;17.30;;
57551;SDS011;43379;48.160;14.036;2023-03-01T10:35:00;20.70;;;18.70;;
57551;SDS011;43379;48.160;14.036;2023-03-01T10:37:25;22.30;;;19.67;;
57551;SDS011;43379;48.160;14.036;2023-03-01T10:40:03;21.37;;;17.93;;
57551;SDS011;43379;48.160;14.036;2023-03-01T10:42:57;22.77;;;19.73;;
57551;SDS011;43379;48.160;14.036;2023-03-01T10:56:01;22.40;;;20.00;;
57551;SDS011;43379;48.160;14.036;2023-03-01T10:58:30;22.43;;;18.63;;
57551;SDS011;43379;48.160;14.036;2023-03-01T11:00:58;21.50;;;19.20;;
57551;SDS011;43379;48.160;14.036;2023-03-01T11:03:31;18.77;;;16.70;;
57551;SDS011;43379;48.160;14.036;2023-03-01T11:05:59;20.33;;;16.97;;
57551;SDS011;43379;48.160;14.036;2023-03-01T11:08:33;23.50;;;18.47;;
57551;SDS011;43379;48.160;14.036;2023-03-01T11:13:38;18.20;;;16.20;;
57551;SDS011;43379;48.160;14.036;2023-03-01T11:16:15;19.00;;;17.00;;
57551;SDS011;43379;48.160;14.036;2023-03-01T11:19:01;19.73;;;17.13;;
57551;SDS011;43379;48.160;14.036;2023-03-01T11:22:02;21.13;;;16.90;;
57551;SDS011;43379;48.160;14.036;2023-03-01T11:24:40;23.23;;;17.10;;
57551;SDS011;43379;48.160;14.036;2023-03-01T11:27:14;23.67;;;17.57;;
57551;SDS011;43379;48.160;14.036;2023-03-01T11:30:21;18.90;;;16.77;;
57551;SDS011;43379;48.160;14.036;2023-03-01T11:32:41;20.47;;;18.30;;
57551;SDS011;43379;48.160;14.036;2023-03-01T11:35:14;21.50;;;19.20;;
57551;SDS011;43379;48.160;14.036;2023-03-01T11:37:59;21.03;;;17.03;;
57551;SDS011;43379;48.160;14.036;2023-03-01T11:40:35;19.40;;;17.00;;
57551;SDS011;43379;48.160;14.036;2023-03-01T12:24:23;17.57;;;15.73;;
57551;SDS011;43379;48.160;14.036;2023-03-01T12:27:19;19.47;;;16.77;;
57551;SDS011;43379;48.160;14.036;2023-03-01T12:44:38;20.03;;;16.00;;
57551;SDS011;43379;48.160;14.036;2023-03-01T12:47:04;19.10;;;17.07;;
57551;SDS011;43379;48.160;14.036;2023-03-01T12:50:00;18.20;;;16.30;;
57551;SDS011;43379;48.160;14.036;2023-03-01T12:54:57;16.73;;;14.93;;
57551;SDS011;43379;48.160;14.036;2023-03-01T13:05:20;19.43;;;16.27;;
57551;SDS011;43379;48.160;14.036;2023-03-01T13:08:13;20.40;;;16.60;;
57551;SDS011;43379;48.160;14.036;2023-03-01T13:10:47;24.43;;;17.40;;
57551;SDS011;43379;48.160;14.036;2023-03-01T13:13:22;20.10;;;17.47;;
57551;SDS011;43379;48.160;14.036;2023-03-01T13:15:49;18.60;;;16.03;;
57551;SDS011;43379;48.160;14.036;2023-03-01T13:33:41;20.60;;;17.67;;
57551;SDS011;43379;48.160;14.036;2023-03-01T13:36:09;18.20;;;15.80;;
57551;SDS011;43379;48.160;14.036;2023-03-01T13:38:45;20.07;;;17.00;;
57551;SDS011;43379;48.160;14.036;2023-03-01T13:41:14;20.80;;;18.07;;
57551;SDS011;43379;48.160;14.036;2023-03-01T13:43:43;21.10;;;16.80;;
57551;SDS011;43379;48.160;14.036;2023-03-01T13:46:14;20.70;;;16.00;;
57551;SDS011;43379;48.160;14.036;2023-03-01T13:48:45;22.10;;;17.37;;
57551;SDS011;43379;48.160;14.036;2023-03-01T13:51:20;20.10;;;17.53;;
57551;SDS011;43379;48.160;14.036;2023-03-01T13:53:56;19.93;;;17.83;;
57551;SDS011;43379;48.160;14.036;2023-03-01T13:56:27;18.80;;;16.80;;
57551;SDS011;43379;48.160;14.036;2023-03-01T13:58:59;19.53;;;16.20;;
57551;SDS011;43379;48.160;14.036;2023-03-01T14:01:33;22.63;;;17.00;;
57551;SDS011;43379;48.160;14.036;2023-03-01T14:04:00;22.60;;;18.53;;
57551;SDS011;43379;48.160;14.036;2023-03-01T14:06:29;24.13;;;17.27;;
57551;SDS011;43379;48.160;14.036;2023-03-01T14:09:02;19.00;;;16.17;;
57551;SDS011;43379;48.160;14.036;2023-03-01T14:20:17;24.03;;;18.60;;
57551;SDS011;43379;48.160;14.036;2023-03-01T14:22:52;24.90;;;20.17;;
57551;SDS011;43379;48.160;14.036;2023-03-01T14:30:25;22.83;;;17.77;;
57551;SDS011;43379;48.160;14.036;2023-03-01T14:33:00;22.07;;;17.77;;
57551;SDS011;43379;48.160;14.036;2023-03-01T14:35:28;19.13;;;17.03;;
57551;SDS011;43379;48.160;14.036;2023-03-01T14:38:01;20.73;;;17.83;;
57551;SDS011;43379;48.160;14.036;2023-03-01T14:42:53;18.30;;;15.87;;
57551;SDS011;43379;48.160;14.036;2023-03-01T14:45:21;20.70;;;15.67;;
57551;SDS011;43379;48.160;14.036;2023-03-01T14:47:49;19.70;;;17.30;;
57551;SDS011;43379;48.160;14.036;2023-03-01T14:50:28;23.23;;;16.77;;
57551;SDS011;43379;48.160;14.036;2023-03-01T14:53:00;23.03;;;16.50;;
57551;SDS011;43379;48.160;14.036;2023-03-01T14:57:56;20.27;;;17.70;;
57551;SDS011;43379;48.160;14.036;2023-03-01T15:00:24;19.60;;;16.17;;
57551;SDS011;43379;48.160;14.036;2023-03-01T15:02:56;17.40;;;15.00;;
57551;SDS011;43379;48.160;14.036;2023-03-01T15:05:27;17.30;;;15.50;;
57551;SDS011;43379;48.160;14.036;2023-03-01T15:07:55;22.57;;;16.90;;
57551;SDS011;43379;48.160;14.036;2023-03-01T15:10:29;20.97;;;16.70;;
57551;SDS011;43379;48.160;14.036;2023-03-01T15:15:50;19.10;;;15.87;;
57551;SDS011;43379;48.160;14.036;2023-03-01T15:18:19;19.27;;;17.17;;
57551;SDS011;43379;48.160;14.036;2023-03-01T15:20:47;21.80;;;17.80;;
57551;SDS011;43379;48.160;14.036;2023-03-01T15:23:22;26.00;;;18.10;;
57551;SDS011;43379;48.160;14.036;2023-03-01T15:25:50;18.97;;;16.40;;
57551;SDS011;43379;48.160;14.036;2023-03-01T15:28:28;19.70;;;17.67;;
57551;SDS011;43379;48.160;14.036;2023-03-01T15:30:57;26.17;;;16.77;;
57551;SDS011;43379;48.160;14.036;2023-03-01T15:33:31;20.60;;;16.90;;
57551;SDS011;43379;48.160;14.036;2023-03-01T15:36:00;18.50;;;16.60;;
57551;SDS011;43379;48.160;14.036;2023-03-01T15:40:59;18.03;;;16.10;;
57551;SDS011;43379;48.160;14.036;2023-03-01T15:46:15;22.50;;;17.23;;
57551;SDS011;43379;48.160;14.036;2023-03-01T15:48:44;19.20;;;16.23;;
57551;SDS011;43379;48.160;14.036;2023-03-01T15:51:14;16.73;;;15.00;;
57551;SDS011;43379;48.160;14.036;2023-03-01T15:53:40;24.40;;;16.20;;
57551;SDS011;43379;48.160;14.036;2023-03-01T15:56:08;19.40;;;17.13;;
57551;SDS011;43379;48.160;14.036;2023-03-01T15:58:34;20.60;;;16.50;;
57551;SDS011;43379;48.160;14.036;2023-03-01T16:00:59;18.20;;;15.50;;
57551;SDS011;43379;48.160;14.036;2023-03-01T16:03:25;18.10;;;15.17;;
57551;SDS011;43379;48.160;14.036;2023-03-01T16:05:51;16.70;;;14.70;;
57551;SDS011;43379;48.160;14.036;2023-03-01T16:08:17;18.17;;;15.73;;
57551;SDS011;43379;48.160;14.036;2023-03-01T16:10:43;20.83;;;15.13;;
57551;SDS011;43379;48.160;14.036;2023-03-01T16:13:11;18.00;;;16.07;;
57551;SDS011;43379;48.160;14.036;2023-03-01T16:15:38;17.13;;;14.50;;
57551;SDS011;43379;48.160;14.036;2023-03-01T16:18:04;20.20;;;16.00;;
57551;SDS011;43379;48.160;14.036;2023-03-01T16:20:32;23.00;;;16.10;;
57551;SDS011;43379;48.160;14.036;2023-03-01T16:22:59;17.10;;;15.20;;
57551;SDS011;43379;48.160;14.036;2023-03-01T16:25:26;18.20;;;16.30;;
57551;SDS011;43379;48.160;14.036;2023-03-01T16:27:52;17.63;;;15.60;;
57551;SDS011;43379;48.160;14.036;2023-03-01T16:30:20;21.13;;;16.00;;
57551;SDS011;43379;48.160;14.036;2023-03-01T16:32:47;19.00;;;16.73;;
57551;SDS011;43379;48.160;14.036;2023-03-01T16:35:14;22.30;;;16.60;;
57551;SDS011;43379;48.160;14.036;2023-03-01T16:37:42;16.63;;;14.43;;